Map

Track Data

SID SEASON NUMBER BASIN SUBBASIN NAME ISO_TIME NATURE LAT LON WMO_WIND WMO_PRES WMO_AGENCY TRACK_TYPE DIST2LAND LANDFALL IFLAG USA_AGENCY USA_ATCF_ID USA_LAT USA_LON USA_RECORD USA_STATUS USA_WIND USA_PRES USA_SSHS USA_R34_NE USA_R34_SE USA_R34_SW USA_R34_NW USA_R50_NE USA_R50_SE USA_R50_SW USA_R50_NW USA_R64_NE USA_R64_SE USA_R64_SW USA_R64_NW USA_POCI USA_ROCI USA_RMW USA_EYE TOKYO_LAT TOKYO_LON TOKYO_GRADE TOKYO_WIND TOKYO_PRES TOKYO_R50_DIR TOKYO_R50_LONG TOKYO_R50_SHORT TOKYO_R30_DIR TOKYO_R30_LONG TOKYO_R30_SHORT TOKYO_LAND CMA_LAT CMA_LON CMA_CAT CMA_WIND CMA_PRES HKO_LAT HKO_LON HKO_CAT HKO_WIND HKO_PRES NEWDELHI_LAT NEWDELHI_LON NEWDELHI_GRADE NEWDELHI_WIND NEWDELHI_PRES NEWDELHI_CI NEWDELHI_DP NEWDELHI_POCI REUNION_LAT REUNION_LON REUNION_TYPE REUNION_WIND REUNION_PRES REUNION_TNUM REUNION_CI REUNION_RMW REUNION_R34_NE REUNION_R34_SE REUNION_R34_SW REUNION_R34_NW REUNION_R50_NE REUNION_R50_SE REUNION_R50_SW REUNION_R50_NW REUNION_R64_NE REUNION_R64_SE REUNION_R64_SW REUNION_R64_NW BOM_LAT BOM_LON BOM_TYPE BOM_WIND BOM_PRES BOM_TNUM BOM_CI BOM_RMW BOM_R34_NE BOM_R34_SE BOM_R34_SW BOM_R34_NW BOM_R50_NE BOM_R50_SE BOM_R50_SW BOM_R50_NW BOM_R64_NE BOM_R64_SE BOM_R64_SW BOM_R64_NW BOM_ROCI BOM_POCI BOM_EYE BOM_POS_METHOD BOM_PRES_METHOD NADI_LAT NADI_LON NADI_CAT NADI_WIND NADI_PRES WELLINGTON_LAT WELLINGTON_LON WELLINGTON_WIND WELLINGTON_PRES DS824_LAT DS824_LON DS824_STAGE DS824_WIND DS824_PRES TD9636_LAT TD9636_LON TD9636_STAGE TD9636_WIND TD9636_PRES TD9635_LAT TD9635_LON TD9635_WIND TD9635_PRES TD9635_ROCI NEUMANN_LAT NEUMANN_LON NEUMANN_CLASS NEUMANN_WIND NEUMANN_PRES MLC_LAT MLC_LON MLC_CLASS MLC_WIND MLC_PRES USA_GUST BOM_GUST BOM_GUST_PER REUNION_GUST REUNION_GUST_PER USA_SEAHGT USA_SEARAD_NE USA_SEARAD_SE USA_SEARAD_SW USA_SEARAD_NW STORM_SPEED STORM_DIR
1966309N27310 1966 104 NA NA LOIS 1966-11-04 12:00:00 TS 26.5000 -50.0000 25 hurdat_atl main 1838 1741 O_____________ hurdat_atl AL111966 26.5000 -50.0000 TD 25 -1 20 271
1966309N27310 1966 104 NA NA LOIS 1966-11-04 15:00:00 TS 26.5245 -51.1298 main 1741 1654 P_____________ AL111966 26.5245 -51.1298 TD 25 -1 20 270
1966309N27310 1966 104 NA NA LOIS 1966-11-04 18:00:00 TS 26.5000 -52.2000 25 hurdat_atl main 1645 1563 O_____________ hurdat_atl AL111966 26.5000 -52.2000 TD 25 -1 18 266
1966309N27310 1966 104 NA NA LOIS 1966-11-04 21:00:00 TS 26.3943 -53.1599 main 1555 1476 P_____________ AL111966 26.3943 -53.1599 TD 25 -1 16 259
1966309N27310 1966 104 NA NA LOIS 1966-11-05 00:00:00 TS 26.2000 -54.0000 25 hurdat_atl main 1476 1391 O_____________ hurdat_atl AL111966 26.2000 -54.0000 TD 25 -1 15 252
1966309N27310 1966 104 NA NA LOIS 1966-11-05 03:00:00 TS 25.9224 -54.7903 main 1391 1323 P_____________ AL111966 25.9224 -54.7903 TD 25 -1 14 245
1966309N27310 1966 104 NA NA LOIS 1966-11-05 06:00:00 TS 25.6000 -55.4000 25 hurdat_atl main 1323 1270 O_____________ hurdat_atl AL111966 25.6000 -55.4000 TD 25 -1 11 235
1966309N27310 1966 104 NA NA LOIS 1966-11-05 09:00:00 TS 25.2696 -55.8273 main 1270 1235 P_____________ AL111966 25.2696 -55.8273 TD 25 -1 8 222
1966309N27310 1966 104 NA NA LOIS 1966-11-05 12:00:00 TS 25.0000 -56.0000 25 hurdat_atl main 1235 1228 O_____________ hurdat_atl AL111966 25.0000 -56.0000 TD 25 -1 4 194
1966309N27310 1966 104 NA NA LOIS 1966-11-05 15:00:00 TS 24.8774 -55.9323 main 1237 1231 P_____________ AL111966 24.8774 -55.9323 TD 25 -1 3 126
1966309N27310 1966 104 NA NA LOIS 1966-11-05 18:00:00 TS 24.8000 -55.7000 25 998 hurdat_atl main 1247 1247 O_____________ hurdat_atl AL111966 24.8000 -55.7000 TD 25 998 -1 5 119
1966309N27310 1966 104 NA NA LOIS 1966-11-05 21:00:00 TS 24.6500 -55.4724 main 1252 1252 P_____________ AL111966 24.6500 -55.4724 TD 25 998 -1 5 123
1966309N27310 1966 104 NA NA LOIS 1966-11-06 00:00:00 TS 24.5000 -55.2000 25 998 hurdat_atl main 1273 1273 O_____________ hurdat_atl AL111966 24.5000 -55.2000 TD 25 998 -1 6 116
1966309N27310 1966 104 NA NA LOIS 1966-11-06 03:00:00 TS 24.4000 -54.9076 main 1294 1294 P_____________ AL111966 24.4000 -54.9076 TD 27 -1 6 110
1966309N27310 1966 104 NA NA LOIS 1966-11-06 06:00:00 TS 24.3000 -54.6000 30 hurdat_atl main 1315 1315 O_____________ hurdat_atl AL111966 24.3000 -54.6000 TD 30 -1 6 115
1966309N27310 1966 104 NA NA LOIS 1966-11-06 09:00:00 TS 24.1425 -54.2924 main 1332 1332 P_____________ AL111966 24.1425 -54.2924 TD 30 -1 6 119
1966309N27310 1966 104 NA NA LOIS 1966-11-06 12:00:00 TS 24.0000 -54.0000 30 hurdat_atl main 1354 1354 O_____________ hurdat_atl AL111966 24.0000 -54.0000 TD 30 -1 5 113
1966309N27310 1966 104 NA NA LOIS 1966-11-06 15:00:00 TS 23.9274 -53.7426 main 1377 1377 P_____________ AL111966 23.9274 -53.7426 TD 40 0 5 102
1966309N27310 1966 104 NA NA LOIS 1966-11-06 18:00:00 TS 23.9000 -53.5000 50 995 hurdat_atl main 1396 1396 O_____________ hurdat_atl AL111966 23.9000 -53.5000 TS 50 995 0 5 93
1966309N27310 1966 104 NA NA LOIS 1966-11-06 21:00:00 TS 23.9000 -53.2426 main 1424 1424 P_____________ AL111966 23.9000 -53.2426 TS 50 0 5 90
1966309N27310 1966 104 NA NA LOIS 1966-11-07 00:00:00 TS 23.9000 -53.0000 50 hurdat_atl main 1442 1442 O_____________ hurdat_atl AL111966 23.9000 -53.0000 TS 50 0 4 96
1966309N27310 1966 104 NA NA LOIS 1966-11-07 03:00:00 TS 23.8575 -52.7850 main 1461 1457 P_____________ AL111966 23.8575 -52.7850 TS 50 0 4 105
1966309N27310 1966 104 NA NA LOIS 1966-11-07 06:00:00 TS 23.8000 -52.6000 50 hurdat_atl main 1476 1476 O_____________ hurdat_atl AL111966 23.8000 -52.6000 TS 50 0 3 117
1966309N27310 1966 104 NA NA LOIS 1966-11-07 09:00:00 TS 23.7197 -52.4873 main 1481 1481 P_____________ AL111966 23.7197 -52.4873 TS 52 0 3 110
1966309N27310 1966 104 NA NA LOIS 1966-11-07 12:00:00 TS 23.7000 -52.3000 55 hurdat_atl main 1500 1500 O_____________ hurdat_atl AL111966 23.7000 -52.3000 TS 55 0 5 83
1966309N27310 1966 104 NA NA LOIS 1966-11-07 15:00:00 TS 23.7821 -51.9468 main 1542 1542 P_____________ AL111966 23.7821 -51.9468 TS 57 0 9 70
1966309N27310 1966 104 NA NA LOIS 1966-11-07 18:00:00 TS 24.0000 -51.4000 60 986 hurdat_atl main 1598 1598 O_____________ hurdat_atl AL111966 24.0000 -51.4000 TS 60 986 0 13 64
1966309N27310 1966 104 NA NA LOIS 1966-11-07 21:00:00 TS 24.3471 -50.6896 main 1676 1676 P_____________ AL111966 24.3471 -50.6896 TS 65 986 1 17 61
1966309N27310 1966 104 NA NA LOIS 1966-11-08 00:00:00 TS 24.8000 -49.8000 70 986 hurdat_atl main 1781 1781 O_____________ hurdat_atl AL111966 24.8000 -49.8000 HU 70 986 1 19 63
1966309N27310 1966 104 NA NA LOIS 1966-11-08 03:00:00 TS 25.2400 -48.7861 main 1891 1891 P_____________ AL111966 25.2400 -48.7861 HU 70 1 21 62
1966309N27310 1966 104 NA NA LOIS 1966-11-08 06:00:00 TS 25.8000 -47.7000 70 hurdat_atl main 2017 2017 O_____________ hurdat_atl AL111966 25.8000 -47.7000 HU 70 1 23 57
1966309N27310 1966 104 NA NA LOIS 1966-11-08 09:00:00 TS 26.4717 -46.6544 main 2138 2138 P_____________ AL111966 26.4717 -46.6544 HU 70 1 25 50
1966309N27310 1966 104 NA NA LOIS 1966-11-08 12:00:00 TS 27.4000 -45.6000 70 hurdat_atl main 2239 2139 O_____________ hurdat_atl AL111966 27.4000 -45.6000 HU 70 1 29 41
1966309N27310 1966 104 NA NA LOIS 1966-11-08 15:00:00 TS 28.6821 -44.5005 main 2131 2028 P_____________ AL111966 28.6821 -44.5005 HU 70 1 33 36
1966309N27310 1966 104 NA NA LOIS 1966-11-08 18:00:00 TS 30.1000 -43.4000 70 hurdat_atl main 2021 1926 O_____________ hurdat_atl AL111966 30.1000 -43.4000 HU 70 1 34 35
1966309N27310 1966 104 NA NA LOIS 1966-11-08 21:00:00 TS 31.4322 -42.2979 main 1930 1860 P_____________ AL111966 31.4322 -42.2979 HU 70 1 31 36
1966309N27310 1966 104 NA NA LOIS 1966-11-09 00:00:00 TS 32.6000 -41.3000 70 hurdat_atl main 1855 1812 O_____________ hurdat_atl AL111966 32.6000 -41.3000 HU 70 1 25 37
1966309N27310 1966 104 NA NA LOIS 1966-11-09 03:00:00 TS 33.4661 -40.4931 main 1808 1779 P_____________ AL111966 33.4661 -40.4931 HU 70 1 20 38
1966309N27310 1966 104 NA NA LOIS 1966-11-09 06:00:00 TS 34.2000 -39.8000 70 hurdat_atl main 1779 1745 O_____________ hurdat_atl AL111966 34.2000 -39.8000 HU 70 1 19 37
1966309N27310 1966 104 NA NA LOIS 1966-11-09 09:00:00 TS 35.0067 -39.1057 main 1745 1717 P_____________ AL111966 35.0067 -39.1057 HU 70 1 20 36
1966309N27310 1966 104 NA NA LOIS 1966-11-09 12:00:00 TS 35.8000 -38.4000 70 989 hurdat_atl main 1717 1701 O_____________ hurdat_atl AL111966 35.8000 -38.4000 HU 70 989 1 20 38
1966309N27310 1966 104 NA NA LOIS 1966-11-09 15:00:00 TS 36.5572 -37.6137 main 1699 1691 P_____________ AL111966 36.5572 -37.6137 HU 70 989 1 20 41
1966309N27310 1966 104 NA NA LOIS 1966-11-09 18:00:00 TS 37.3000 -36.8000 70 989 hurdat_atl main 1695 1688 O_____________ hurdat_atl AL111966 37.3000 -36.8000 HU 70 989 1 20 40
1966309N27310 1966 104 NA NA LOIS 1966-11-09 21:00:00 TS 38.0721 -35.9918 main 1687 1685 P_____________ AL111966 38.0721 -35.9918 HU 70 1 20 40
1966309N27310 1966 104 NA NA LOIS 1966-11-10 00:00:00 TS 38.8000 -35.2000 70 hurdat_atl main 1692 1692 O_____________ hurdat_atl AL111966 38.8000 -35.2000 HU 70 1 18 42
1966309N27310 1966 104 NA NA LOIS 1966-11-10 03:00:00 TS 39.4218 -34.4403 main 1708 1702 P_____________ AL111966 39.4218 -34.4403 HU 70 1 17 44
1966309N27310 1966 104 NA NA LOIS 1966-11-10 06:00:00 TS 40.0000 -33.7000 70 hurdat_atl main 1720 1720 O_____________ hurdat_atl AL111966 40.0000 -33.7000 HU 70 1 16 44
1966309N27310 1966 104 NA NA LOIS 1966-11-10 09:00:00 TS 40.5842 -32.9627 main 1732 1732 P_____________ AL111966 40.5842 -32.9627 HU 67 1 17 44
1966309N27310 1966 104 NA NA LOIS 1966-11-10 12:00:00 TS 41.2000 -32.2000 65 988 hurdat_atl main 1754 1754 O_____________ hurdat_atl AL111966 41.2000 -32.2000 HU 65 988 1 18 43
1966309N27310 1966 104 NA NA LOIS 1966-11-10 15:00:00 TS 41.8922 -31.3645 main 1774 1719 P_____________ AL111966 41.8922 -31.3645 HU 65 1 19 42
1966309N27310 1966 104 NA NA LOIS 1966-11-10 18:00:00 TS 42.6000 -30.5000 65 hurdat_atl main 1719 1646 O_____________ hurdat_atl AL111966 42.6000 -30.5000 HU 65 1 19 43
1966309N27310 1966 104 NA NA LOIS 1966-11-10 21:00:00 TS 43.2720 -29.6413 main 1637 1567 P_____________ AL111966 43.2720 -29.6413 HU 65 1 18 44
1966309N27310 1966 104 NA NA LOIS 1966-11-11 00:00:00 TS 43.9000 -28.8000 65 hurdat_atl main 1567 1502 O_____________ hurdat_atl AL111966 43.9000 -28.8000 HU 65 1 17 45
1966309N27310 1966 104 NA NA LOIS 1966-11-11 03:00:00 TS 44.4869 -27.9838 main 1502 1440 P_____________ AL111966 44.4869 -27.9838 HU 65 1 16 46
1966309N27310 1966 104 NA NA LOIS 1966-11-11 06:00:00 TS 45.0000 -27.2000 65 hurdat_atl main 1440 1371 O_____________ hurdat_atl AL111966 45.0000 -27.2000 HU 65 1 14 49
1966309N27310 1966 104 NA NA LOIS 1966-11-11 09:00:00 TS 45.4364 -26.4631 main 1371 1295 P_____________ AL111966 45.4364 -26.4631 HU 65 1 13 53
1966309N27310 1966 104 NA NA LOIS 1966-11-11 12:00:00 TS 45.8000 -25.7000 65 hurdat_atl main 1295 1226 O_____________ hurdat_atl AL111966 45.8000 -25.7000 HU 65 1 13 59
1966309N27310 1966 104 NA NA LOIS 1966-11-11 15:00:00 TS 46.1298 -24.8220 main 1219 1150 P_____________ AL111966 46.1298 -24.8220 HU 65 1 14 64
1966309N27310 1966 104 NA NA LOIS 1966-11-11 18:00:00 TS 46.4000 -23.9000 65 hurdat_atl main 1144 1076 O_____________ hurdat_atl AL111966 46.4000 -23.9000 HU 65 1 14 69
1966309N27310 1966 104 NA NA LOIS 1966-11-11 21:00:00 TS 46.6303 -22.9473 main 1070 1008 P_____________ AL111966 46.6303 -22.9473 HU 65 1 13 72
1966309N27310 1966 104 NA NA LOIS 1966-11-12 00:00:00 ET 46.8000 -22.1000 65 hurdat_atl main 1008 965 O_____________ hurdat_atl AL111966 46.8000 -22.1000 EX 65 -4 10 72
1966309N27310 1966 104 NA NA LOIS 1966-11-12 03:00:00 ET 46.9514 -21.4900 main 959 929 P_____________ AL111966 46.9514 -21.4900 EX 62 -4 8 75
1966309N27310 1966 104 NA NA LOIS 1966-11-12 06:00:00 ET 47.0000 -21.0000 60 hurdat_atl main 929 906 O_____________ hurdat_atl AL111966 47.0000 -21.0000 EX 60 -4 7 92
1966309N27310 1966 104 NA NA LOIS 1966-11-12 09:00:00 ET 46.9242 -20.5233 main 907 891 P_____________ AL111966 46.9242 -20.5233 EX 57 -4 7 114
1966309N27310 1966 104 NA NA LOIS 1966-11-12 12:00:00 ET 46.7000 -20.0000 55 hurdat_atl main 892 879 O_____________ hurdat_atl AL111966 46.7000 -20.0000 EX 55 -4 10 125
1966309N27310 1966 104 NA NA LOIS 1966-11-12 15:00:00 ET 46.3450 -19.3295 main 868 802 P_____________ AL111966 46.3450 -19.3295 EX 50 -4 13 130
1966309N27310 1966 104 NA NA LOIS 1966-11-12 18:00:00 ET 45.9000 -18.6000 45 hurdat_atl main 802 736 O_____________ hurdat_atl AL111966 45.9000 -18.6000 EX 45 -4 14 131
1966309N27310 1966 104 NA NA LOIS 1966-11-12 21:00:00 ET 45.4427 -17.8621 main 732 667 P_____________ AL111966 45.4427 -17.8621 EX 45 -4 13 133
1966309N27310 1966 104 NA NA LOIS 1966-11-13 00:00:00 ET 45.0000 -17.2000 45 hurdat_atl main 667 620 O_____________ hurdat_atl AL111966 45.0000 -17.2000 EX 45 -4 11 134
1966309N27310 1966 104 NA NA LOIS 1966-11-13 03:00:00 ET 44.6419 -16.7068 main 617 579 P_____________ AL111966 44.6419 -16.7068 EX 45 -4 9 138
1966309N27310 1966 104 NA NA LOIS 1966-11-13 06:00:00 ET 44.3000 -16.3000 45 hurdat_atl main 579 540 O_____________ hurdat_atl AL111966 44.3000 -16.3000 EX 45 -4 9 141
1966309N27310 1966 104 NA NA LOIS 1966-11-13 09:00:00 ET 43.9223 -15.8856 main 540 503 P_____________ AL111966 43.9223 -15.8856 EX 45 -4 10 144
1966309N27310 1966 104 NA NA LOIS 1966-11-13 12:00:00 ET 43.5000 -15.5000 45 1016 hurdat_atl main 503 469 O_____________ hurdat_atl AL111966 43.5000 -15.5000 EX 45 1016 -4 10 148
1966309N27310 1966 104 NA NA LOIS 1966-11-13 15:00:00 ET 43.0374 -15.1279 main 469 448 P_____________ AL111966 43.0374 -15.1279 EX 45 -4 11 153
1966309N27310 1966 104 NA NA LOIS 1966-11-13 18:00:00 ET 42.5000 -14.8000 45 hurdat_atl main 449 439 O_____________ hurdat_atl AL111966 42.5000 -14.8000 EX 45 -4 12 159
1966309N27310 1966 104 NA NA LOIS 1966-11-13 21:00:00 ET 41.8751 -14.5317 main 439 439 P_____________ AL111966 41.8751 -14.5317 EX 45 -4 14 164
1966309N27310 1966 104 NA NA LOIS 1966-11-14 00:00:00 ET 41.2000 -14.3000 45 hurdat_atl main 452 O_____________ hurdat_atl AL111966 41.2000 -14.3000 EX 45 -4 14 166

About IBTrACS Database

This database is a web-friendly format of International Best Track Archive for Climate Stewardship (IBTrACS), a global best track data archive curated by NOAA dating back to 1842.

Updated: 2021-11-26